sensor_id;sensor_type;location;lat;lon;timestamp;P1;durP1;ratioP1;P2;durP2;ratioP2
26574;SDS011;67165;50.256;10.978;2023-05-14T00:01:37;7.25;;;5.05;;
26574;SDS011;67165;50.256;10.978;2023-05-14T00:04:03;7.28;;;4.60;;
26574;SDS011;67165;50.256;10.978;2023-05-14T00:06:29;8.27;;;5.00;;
26574;SDS011;67165;50.256;10.978;2023-05-14T00:08:55;6.40;;;4.80;;
26574;SDS011;67165;50.256;10.978;2023-05-14T00:11:21;7.25;;;4.95;;
26574;SDS011;67165;50.256;10.978;2023-05-14T00:13:47;5.57;;;4.63;;
26574;SDS011;67165;50.256;10.978;2023-05-14T00:16:13;7.40;;;4.85;;
26574;SDS011;67165;50.256;10.978;2023-05-14T00:18:39;6.05;;;4.75;;
26574;SDS011;67165;50.256;10.978;2023-05-14T00:21:05;7.30;;;4.72;;
26574;SDS011;67165;50.256;10.978;2023-05-14T00:23:31;8.07;;;5.10;;
26574;SDS011;67165;50.256;10.978;2023-05-14T00:25:57;6.43;;;5.07;;
26574;SDS011;67165;50.256;10.978;2023-05-14T00:28:22;6.50;;;4.90;;
26574;SDS011;67165;50.256;10.978;2023-05-14T00:30:48;5.10;;;4.53;;
26574;SDS011;67165;50.256;10.978;2023-05-14T00:33:13;7.38;;;5.35;;
26574;SDS011;67165;50.256;10.978;2023-05-14T00:35:39;6.28;;;4.75;;
26574;SDS011;67165;50.256;10.978;2023-05-14T00:38:05;8.38;;;5.18;;
26574;SDS011;67165;50.256;10.978;2023-05-14T00:40:30;8.35;;;4.88;;
26574;SDS011;67165;50.256;10.978;2023-05-14T00:42:56;6.95;;;4.70;;
26574;SDS011;67165;50.256;10.978;2023-05-14T00:45:22;5.80;;;5.13;;
26574;SDS011;67165;50.256;10.978;2023-05-14T00:47:47;5.32;;;4.80;;
26574;SDS011;67165;50.256;10.978;2023-05-14T00:50:14;6.78;;;4.90;;
26574;SDS011;67165;50.256;10.978;2023-05-14T00:52:43;6.82;;;5.18;;
26574;SDS011;67165;50.256;10.978;2023-05-14T00:55:09;6.80;;;4.75;;
26574;SDS011;67165;50.256;10.978;2023-05-14T00:57:40;4.80;;;4.32;;
26574;SDS011;67165;50.256;10.978;2023-05-14T01:00:06;5.25;;;4.60;;
26574;SDS011;67165;50.256;10.978;2023-05-14T01:02:32;5.38;;;4.47;;
26574;SDS011;67165;50.256;10.978;2023-05-14T01:04:58;7.45;;;4.93;;
26574;SDS011;67165;50.256;10.978;2023-05-14T01:10:10;6.55;;;4.88;;
26574;SDS011;67165;50.256;10.978;2023-05-14T01:15:21;5.50;;;4.68;;
26574;SDS011;67165;50.256;10.978;2023-05-14T01:17:55;6.32;;;4.88;;
26574;SDS011;67165;50.256;10.978;2023-05-14T01:20:28;6.53;;;4.60;;
26574;SDS011;67165;50.256;10.978;2023-05-14T01:22:57;5.55;;;4.82;;
26574;SDS011;67165;50.256;10.978;2023-05-14T01:25:22;6.20;;;4.88;;
26574;SDS011;67165;50.256;10.978;2023-05-14T01:27:55;6.70;;;5.13;;
26574;SDS011;67165;50.256;10.978;2023-05-14T01:33:09;7.25;;;5.07;;
26574;SDS011;67165;50.256;10.978;2023-05-14T01:35:37;10.00;;;5.15;;
26574;SDS011;67165;50.256;10.978;2023-05-14T01:38:05;7.03;;;5.35;;
26574;SDS011;67165;50.256;10.978;2023-05-14T01:40:33;8.15;;;5.00;;
26574;SDS011;67165;50.256;10.978;2023-05-14T01:43:01;8.07;;;5.30;;
26574;SDS011;67165;50.256;10.978;2023-05-14T01:45:27;8.57;;;4.97;;
26574;SDS011;67165;50.256;10.978;2023-05-14T01:47:55;6.05;;;5.15;;
26574;SDS011;67165;50.256;10.978;2023-05-14T01:50:20;7.30;;;5.50;;
26574;SDS011;67165;50.256;10.978;2023-05-14T01:52:46;7.22;;;5.03;;
26574;SDS011;67165;50.256;10.978;2023-05-14T01:55:12;7.63;;;4.90;;
26574;SDS011;67165;50.256;10.978;2023-05-14T01:57:39;11.77;;;5.80;;
26574;SDS011;67165;50.256;10.978;2023-05-14T02:00:05;7.32;;;5.53;;
26574;SDS011;67165;50.256;10.978;2023-05-14T02:02:31;9.95;;;5.40;;
26574;SDS011;67165;50.256;10.978;2023-05-14T02:04:57;8.07;;;5.15;;
26574;SDS011;67165;50.256;10.978;2023-05-14T02:07:23;8.75;;;5.60;;
26574;SDS011;67165;50.256;10.978;2023-05-14T02:09:48;6.38;;;5.20;;
26574;SDS011;67165;50.256;10.978;2023-05-14T02:12:14;9.27;;;5.32;;
26574;SDS011;67165;50.256;10.978;2023-05-14T02:14:41;9.05;;;5.85;;
26574;SDS011;67165;50.256;10.978;2023-05-14T02:17:06;8.20;;;5.75;;
26574;SDS011;67165;50.256;10.978;2023-05-14T02:19:32;7.90;;;6.07;;
26574;SDS011;67165;50.256;10.978;2023-05-14T02:21:58;8.63;;;6.00;;
26574;SDS011;67165;50.256;10.978;2023-05-14T02:24:25;7.97;;;5.72;;
26574;SDS011;67165;50.256;10.978;2023-05-14T02:26:51;6.65;;;5.25;;
26574;SDS011;67165;50.256;10.978;2023-05-14T02:29:17;6.60;;;5.57;;
26574;SDS011;67165;50.256;10.978;2023-05-14T02:31:42;7.10;;;5.22;;
26574;SDS011;67165;50.256;10.978;2023-05-14T02:34:08;7.70;;;5.45;;
26574;SDS011;67165;50.256;10.978;2023-05-14T02:36:34;7.05;;;5.50;;
26574;SDS011;67165;50.256;10.978;2023-05-14T02:39:00;10.10;;;5.35;;
26574;SDS011;67165;50.256;10.978;2023-05-14T02:41:25;8.40;;;5.22;;
26574;SDS011;67165;50.256;10.978;2023-05-14T02:43:52;7.10;;;5.07;;
26574;SDS011;67165;50.256;10.978;2023-05-14T02:46:18;7.53;;;5.40;;
26574;SDS011;67165;50.256;10.978;2023-05-14T02:48:43;7.70;;;5.53;;
26574;SDS011;67165;50.256;10.978;2023-05-14T02:51:09;7.00;;;5.65;;
26574;SDS011;67165;50.256;10.978;2023-05-14T02:53:35;6.95;;;5.32;;
26574;SDS011;67165;50.256;10.978;2023-05-14T02:56:00;6.85;;;5.32;;
26574;SDS011;67165;50.256;10.978;2023-05-14T02:58:26;9.15;;;6.43;;
26574;SDS011;67165;50.256;10.978;2023-05-14T03:00:52;9.07;;;5.55;;
26574;SDS011;67165;50.256;10.978;2023-05-14T03:03:17;9.23;;;6.05;;
26574;SDS011;67165;50.256;10.978;2023-05-14T03:05:43;6.50;;;5.45;;
26574;SDS011;67165;50.256;10.978;2023-05-14T03:08:09;7.13;;;5.20;;
26574;SDS011;67165;50.256;10.978;2023-05-14T03:10:35;6.93;;;5.22;;
26574;SDS011;67165;50.256;10.978;2023-05-14T03:13:01;7.18;;;5.65;;
26574;SDS011;67165;50.256;10.978;2023-05-14T03:15:26;6.97;;;5.50;;
26574;SDS011;67165;50.256;10.978;2023-05-14T03:17:52;8.05;;;5.20;;
26574;SDS011;67165;50.256;10.978;2023-05-14T03:20:18;7.75;;;5.15;;
26574;SDS011;67165;50.256;10.978;2023-05-14T03:22:44;7.82;;;5.50;;
26574;SDS011;67165;50.256;10.978;2023-05-14T03:25:10;6.55;;;5.35;;
26574;SDS011;67165;50.256;10.978;2023-05-14T03:27:35;8.27;;;5.80;;
26574;SDS011;67165;50.256;10.978;2023-05-14T03:30:01;8.82;;;5.20;;
26574;SDS011;67165;50.256;10.978;2023-05-14T03:32:27;10.02;;;5.35;;
26574;SDS011;67165;50.256;10.978;2023-05-14T03:34:52;7.72;;;5.82;;
26574;SDS011;67165;50.256;10.978;2023-05-14T03:37:19;7.40;;;5.57;;
26574;SDS011;67165;50.256;10.978;2023-05-14T03:39:44;7.35;;;5.40;;
26574;SDS011;67165;50.256;10.978;2023-05-14T03:42:10;6.60;;;5.90;;
26574;SDS011;67165;50.256;10.978;2023-05-14T03:44:36;7.15;;;5.47;;
26574;SDS011;67165;50.256;10.978;2023-05-14T03:47:01;7.57;;;5.78;;
26574;SDS011;67165;50.256;10.978;2023-05-14T03:49:27;10.30;;;6.30;;
26574;SDS011;67165;50.256;10.978;2023-05-14T03:51:53;9.70;;;5.43;;
26574;SDS011;67165;50.256;10.978;2023-05-14T03:54:18;10.18;;;6.43;;
26574;SDS011;67165;50.256;10.978;2023-05-14T03:56:44;11.88;;;6.07;;
26574;SDS011;67165;50.256;10.978;2023-05-14T03:59:10;6.47;;;5.45;;
26574;SDS011;67165;50.256;10.978;2023-05-14T04:01:35;6.82;;;5.50;;
26574;SDS011;67165;50.256;10.978;2023-05-14T04:04:01;6.82;;;5.53;;
26574;SDS011;67165;50.256;10.978;2023-05-14T04:06:27;8.32;;;6.03;;
26574;SDS011;67165;50.256;10.978;2023-05-14T04:08:52;6.75;;;5.70;;
26574;SDS011;67165;50.256;10.978;2023-05-14T04:11:18;7.00;;;5.55;;
26574;SDS011;67165;50.256;10.978;2023-05-14T04:13:43;7.13;;;5.80;;
26574;SDS011;67165;50.256;10.978;2023-05-14T04:16:09;6.57;;;5.40;;
26574;SDS011;67165;50.256;10.978;2023-05-14T04:18:35;7.18;;;5.50;;
26574;SDS011;67165;50.256;10.978;2023-05-14T04:21:01;6.07;;;5.20;;
26574;SDS011;67165;50.256;10.978;2023-05-14T04:23:27;8.38;;;5.47;;
26574;SDS011;67165;50.256;10.978;2023-05-14T04:25:53;6.15;;;5.50;;
26574;SDS011;67165;50.256;10.978;2023-05-14T04:28:19;9.02;;;5.07;;
26574;SDS011;67165;50.256;10.978;2023-05-14T04:30:44;7.18;;;5.32;;
26574;SDS011;67165;50.256;10.978;2023-05-14T04:33:10;6.78;;;5.53;;
26574;SDS011;67165;50.256;10.978;2023-05-14T04:35:36;7.03;;;5.45;;
26574;SDS011;67165;50.256;10.978;2023-05-14T04:38:02;8.48;;;5.45;;
26574;SDS011;67165;50.256;10.978;2023-05-14T04:40:28;8.20;;;5.47;;
26574;SDS011;67165;50.256;10.978;2023-05-14T04:42:55;7.18;;;5.75;;
26574;SDS011;67165;50.256;10.978;2023-05-14T04:45:20;8.90;;;5.30;;
26574;SDS011;67165;50.256;10.978;2023-05-14T04:47:46;14.27;;;5.30;;
26574;SDS011;67165;50.256;10.978;2023-05-14T04:50:12;8.02;;;5.85;;
26574;SDS011;67165;50.256;10.978;2023-05-14T04:52:38;7.00;;;5.50;;
26574;SDS011;67165;50.256;10.978;2023-05-14T04:55:04;6.88;;;5.00;;
26574;SDS011;67165;50.256;10.978;2023-05-14T04:57:30;10.23;;;5.72;;
26574;SDS011;67165;50.256;10.978;2023-05-14T04:59:56;7.82;;;5.30;;
26574;SDS011;67165;50.256;10.978;2023-05-14T05:02:21;10.23;;;5.88;;
26574;SDS011;67165;50.256;10.978;2023-05-14T05:04:47;5.57;;;4.80;;
26574;SDS011;67165;50.256;10.978;2023-05-14T05:07:12;7.68;;;5.22;;
26574;SDS011;67165;50.256;10.978;2023-05-14T05:09:38;8.93;;;5.00;;
26574;SDS011;67165;50.256;10.978;2023-05-14T05:12:04;7.68;;;4.93;;
26574;SDS011;67165;50.256;10.978;2023-05-14T05:14:30;6.85;;;5.40;;
26574;SDS011;67165;50.256;10.978;2023-05-14T05:16:56;6.47;;;5.55;;
26574;SDS011;67165;50.256;10.978;2023-05-14T05:19:22;8.77;;;5.13;;
26574;SDS011;67165;50.256;10.978;2023-05-14T05:21:47;7.63;;;5.10;;
26574;SDS011;67165;50.256;10.978;2023-05-14T05:24:13;6.80;;;5.18;;
26574;SDS011;67165;50.256;10.978;2023-05-14T05:26:39;5.97;;;5.07;;
26574;SDS011;67165;50.256;10.978;2023-05-14T05:29:04;6.90;;;5.20;;
26574;SDS011;67165;50.256;10.978;2023-05-14T05:31:31;6.00;;;4.75;;
26574;SDS011;67165;50.256;10.978;2023-05-14T05:33:57;6.45;;;5.07;;
26574;SDS011;67165;50.256;10.978;2023-05-14T05:36:24;6.25;;;5.20;;
26574;SDS011;67165;50.256;10.978;2023-05-14T05:38:50;8.00;;;5.28;;
26574;SDS011;67165;50.256;10.978;2023-05-14T05:41:15;5.80;;;5.07;;
26574;SDS011;67165;50.256;10.978;2023-05-14T05:43:41;6.13;;;5.10;;
26574;SDS011;67165;50.256;10.978;2023-05-14T05:46:07;7.55;;;5.03;;
26574;SDS011;67165;50.256;10.978;2023-05-14T05:48:32;6.53;;;5.05;;
26574;SDS011;67165;50.256;10.978;2023-05-14T05:50:58;8.75;;;5.22;;
26574;SDS011;67165;50.256;10.978;2023-05-14T05:53:24;6.40;;;4.82;;
26574;SDS011;67165;50.256;10.978;2023-05-14T05:55:49;5.65;;;4.50;;
26574;SDS011;67165;50.256;10.978;2023-05-14T05:58:16;6.78;;;4.80;;
26574;SDS011;67165;50.256;10.978;2023-05-14T06:00:42;5.53;;;4.93;;
26574;SDS011;67165;50.256;10.978;2023-05-14T06:03:08;5.47;;;4.90;;
26574;SDS011;67165;50.256;10.978;2023-05-14T06:05:35;6.35;;;4.60;;
26574;SDS011;67165;50.256;10.978;2023-05-14T06:08:00;7.22;;;4.53;;
26574;SDS011;67165;50.256;10.978;2023-05-14T06:10:26;8.73;;;4.85;;
26574;SDS011;67165;50.256;10.978;2023-05-14T06:12:52;6.07;;;4.78;;
26574;SDS011;67165;50.256;10.978;2023-05-14T06:15:18;6.13;;;4.53;;
26574;SDS011;67165;50.256;10.978;2023-05-14T06:17:44;7.78;;;4.63;;
26574;SDS011;67165;50.256;10.978;2023-05-14T06:20:10;8.13;;;4.55;;
26574;SDS011;67165;50.256;10.978;2023-05-14T06:22:36;5.30;;;4.63;;
26574;SDS011;67165;50.256;10.978;2023-05-14T06:25:02;6.68;;;4.50;;
26574;SDS011;67165;50.256;10.978;2023-05-14T06:27:28;5.90;;;4.30;;
26574;SDS011;67165;50.256;10.978;2023-05-14T06:29:54;5.65;;;4.28;;
26574;SDS011;67165;50.256;10.978;2023-05-14T06:32:20;5.35;;;4.68;;
26574;SDS011;67165;50.256;10.978;2023-05-14T06:34:45;5.03;;;4.53;;
26574;SDS011;67165;50.256;10.978;2023-05-14T06:37:11;5.00;;;4.35;;
26574;SDS011;67165;50.256;10.978;2023-05-14T06:39:37;6.05;;;4.55;;
26574;SDS011;67165;50.256;10.978;2023-05-14T06:42:08;6.43;;;4.72;;
26574;SDS011;67165;50.256;10.978;2023-05-14T06:44:33;5.80;;;4.90;;
26574;SDS011;67165;50.256;10.978;2023-05-14T06:47:00;7.22;;;4.90;;
26574;SDS011;67165;50.256;10.978;2023-05-14T06:49:25;5.20;;;4.22;;
26574;SDS011;67165;50.256;10.978;2023-05-14T06:51:51;4.93;;;4.43;;
26574;SDS011;67165;50.256;10.978;2023-05-14T06:54:18;5.60;;;4.90;;
26574;SDS011;67165;50.256;10.978;2023-05-14T06:56:46;6.13;;;5.10;;
26574;SDS011;67165;50.256;10.978;2023-05-14T06:59:12;6.78;;;5.20;;
26574;SDS011;67165;50.256;10.978;2023-05-14T07:01:38;7.30;;;5.20;;
26574;SDS011;67165;50.256;10.978;2023-05-14T07:04:06;6.93;;;5.30;;
26574;SDS011;67165;50.256;10.978;2023-05-14T07:06:32;7.07;;;5.60;;
26574;SDS011;67165;50.256;10.978;2023-05-14T07:08:58;6.07;;;5.00;;
26574;SDS011;67165;50.256;10.978;2023-05-14T07:11:25;8.15;;;5.32;;
26574;SDS011;67165;50.256;10.978;2023-05-14T07:13:50;5.85;;;5.13;;
26574;SDS011;67165;50.256;10.978;2023-05-14T07:16:16;6.90;;;5.13;;
26574;SDS011;67165;50.256;10.978;2023-05-14T07:18:42;5.28;;;4.50;;
26574;SDS011;67165;50.256;10.978;2023-05-14T07:21:08;8.45;;;5.38;;
26574;SDS011;67165;50.256;10.978;2023-05-14T07:23:33;5.78;;;5.07;;
26574;SDS011;67165;50.256;10.978;2023-05-14T07:26:03;6.53;;;5.43;;
26574;SDS011;67165;50.256;10.978;2023-05-14T07:28:29;5.93;;;5.28;;
26574;SDS011;67165;50.256;10.978;2023-05-14T07:30:55;7.25;;;5.00;;
26574;SDS011;67165;50.256;10.978;2023-05-14T07:33:21;5.90;;;5.10;;
26574;SDS011;67165;50.256;10.978;2023-05-14T07:35:47;7.18;;;6.32;;
26574;SDS011;67165;50.256;10.978;2023-05-14T07:38:13;8.13;;;5.47;;
26574;SDS011;67165;50.256;10.978;2023-05-14T07:40:39;6.07;;;5.15;;
26574;SDS011;67165;50.256;10.978;2023-05-14T07:43:07;6.32;;;5.40;;
26574;SDS011;67165;50.256;10.978;2023-05-14T07:45:35;8.02;;;5.25;;
26574;SDS011;67165;50.256;10.978;2023-05-14T07:48:01;6.95;;;5.72;;
26574;SDS011;67165;50.256;10.978;2023-05-14T07:50:26;7.63;;;5.93;;
26574;SDS011;67165;50.256;10.978;2023-05-14T07:52:52;7.57;;;6.05;;
26574;SDS011;67165;50.256;10.978;2023-05-14T07:55:18;9.30;;;7.22;;
26574;SDS011;67165;50.256;10.978;2023-05-14T07:57:43;9.13;;;6.35;;
26574;SDS011;67165;50.256;10.978;2023-05-14T08:00:10;7.50;;;5.78;;
26574;SDS011;67165;50.256;10.978;2023-05-14T08:02:36;8.20;;;6.30;;
26574;SDS011;67165;50.256;10.978;2023-05-14T08:05:01;8.07;;;6.28;;
26574;SDS011;67165;50.256;10.978;2023-05-14T08:07:28;7.03;;;6.07;;
26574;SDS011;67165;50.256;10.978;2023-05-14T08:09:54;8.10;;;6.45;;
26574;SDS011;67165;50.256;10.978;2023-05-14T08:12:19;8.45;;;6.63;;
26574;SDS011;67165;50.256;10.978;2023-05-14T08:14:45;7.55;;;6.63;;
26574;SDS011;67165;50.256;10.978;2023-05-14T08:17:11;8.13;;;6.53;;
26574;SDS011;67165;50.256;10.978;2023-05-14T08:19:37;8.80;;;5.90;;
26574;SDS011;67165;50.256;10.978;2023-05-14T08:22:03;8.63;;;6.32;;
26574;SDS011;67165;50.256;10.978;2023-05-14T08:24:29;8.52;;;6.18;;
26574;SDS011;67165;50.256;10.978;2023-05-14T08:26:55;8.05;;;6.22;;
26574;SDS011;67165;50.256;10.978;2023-05-14T08:29:21;7.60;;;6.22;;
26574;SDS011;67165;50.256;10.978;2023-05-14T08:31:49;9.52;;;6.30;;
26574;SDS011;67165;50.256;10.978;2023-05-14T08:34:15;9.52;;;6.50;;
26574;SDS011;67165;50.256;10.978;2023-05-14T08:36:41;8.35;;;6.45;;
26574;SDS011;67165;50.256;10.978;2023-05-14T08:39:07;7.88;;;6.22;;
26574;SDS011;67165;50.256;10.978;2023-05-14T08:41:32;7.95;;;6.40;;
26574;SDS011;67165;50.256;10.978;2023-05-14T08:44:14;6.85;;;5.90;;
26574;SDS011;67165;50.256;10.978;2023-05-14T08:46:42;7.93;;;6.40;;
26574;SDS011;67165;50.256;10.978;2023-05-14T08:49:13;8.45;;;6.47;;
26574;SDS011;67165;50.256;10.978;2023-05-14T08:51:45;8.20;;;6.32;;
26574;SDS011;67165;50.256;10.978;2023-05-14T08:54:13;7.20;;;5.90;;
26574;SDS011;67165;50.256;10.978;2023-05-14T08:56:42;8.77;;;6.05;;
26574;SDS011;67165;50.256;10.978;2023-05-14T08:59:10;7.07;;;5.90;;
26574;SDS011;67165;50.256;10.978;2023-05-14T09:01:37;7.20;;;5.97;;
26574;SDS011;67165;50.256;10.978;2023-05-14T09:04:03;7.85;;;5.78;;
26574;SDS011;67165;50.256;10.978;2023-05-14T09:06:34;7.55;;;5.72;;
26574;SDS011;67165;50.256;10.978;2023-05-14T09:09:04;8.02;;;6.15;;
26574;SDS011;67165;50.256;10.978;2023-05-14T09:11:29;9.40;;;6.07;;
26574;SDS011;67165;50.256;10.978;2023-05-14T09:13:55;6.38;;;5.38;;
26574;SDS011;67165;50.256;10.978;2023-05-14T09:16:21;7.45;;;6.30;;
26574;SDS011;67165;50.256;10.978;2023-05-14T09:18:49;6.50;;;5.38;;
26574;SDS011;67165;50.256;10.978;2023-05-14T09:21:16;7.85;;;5.47;;
26574;SDS011;67165;50.256;10.978;2023-05-14T09:23:42;7.10;;;5.43;;
26574;SDS011;67165;50.256;10.978;2023-05-14T09:26:09;7.18;;;5.40;;
26574;SDS011;67165;50.256;10.978;2023-05-14T09:28:38;6.78;;;5.35;;
26574;SDS011;67165;50.256;10.978;2023-05-14T09:31:05;5.82;;;5.22;;
26574;SDS011;67165;50.256;10.978;2023-05-14T09:33:33;7.40;;;5.35;;
26574;SDS011;67165;50.256;10.978;2023-05-14T09:35:59;6.85;;;5.07;;
26574;SDS011;67165;50.256;10.978;2023-05-14T09:38:31;9.35;;;4.85;;
26574;SDS011;67165;50.256;10.978;2023-05-14T09:40:58;6.93;;;5.65;;
26574;SDS011;67165;50.256;10.978;2023-05-14T09:43:24;6.00;;;5.10;;
26574;SDS011;67165;50.256;10.978;2023-05-14T09:45:50;7.43;;;5.05;;
26574;SDS011;67165;50.256;10.978;2023-05-14T09:48:17;6.35;;;5.15;;
26574;SDS011;67165;50.256;10.978;2023-05-14T09:50:44;6.22;;;5.10;;
26574;SDS011;67165;50.256;10.978;2023-05-14T09:53:10;8.15;;;4.95;;
26574;SDS011;67165;50.256;10.978;2023-05-14T09:55:38;7.10;;;5.20;;
26574;SDS011;67165;50.256;10.978;2023-05-14T09:58:04;7.35;;;4.90;;
26574;SDS011;67165;50.256;10.978;2023-05-14T10:00:30;10.60;;;4.78;;
26574;SDS011;67165;50.256;10.978;2023-05-14T10:02:57;6.18;;;5.10;;
26574;SDS011;67165;50.256;10.978;2023-05-14T10:05:28;7.82;;;4.82;;
26574;SDS011;67165;50.256;10.978;2023-05-14T10:07:55;6.75;;;4.78;;
26574;SDS011;67165;50.256;10.978;2023-05-14T10:10:23;6.70;;;4.95;;
26574;SDS011;67165;50.256;10.978;2023-05-14T10:12:53;6.43;;;4.97;;
26574;SDS011;67165;50.256;10.978;2023-05-14T10:16:05;5.88;;;4.70;;
26574;SDS011;67165;50.256;10.978;2023-05-14T10:18:42;5.45;;;4.65;;
26574;SDS011;67165;50.256;10.978;2023-05-14T10:21:15;4.80;;;4.30;;
26574;SDS011;67165;50.256;10.978;2023-05-14T10:23:44;6.65;;;5.00;;
26574;SDS011;67165;50.256;10.978;2023-05-14T10:26:15;5.78;;;4.35;;
26574;SDS011;67165;50.256;10.978;2023-05-14T10:28:41;4.68;;;4.18;;
26574;SDS011;67165;50.256;10.978;2023-05-14T10:31:08;6.18;;;4.30;;
26574;SDS011;67165;50.256;10.978;2023-05-14T10:33:55;5.93;;;4.68;;
26574;SDS011;67165;50.256;10.978;2023-05-14T10:36:20;5.75;;;4.40;;
26574;SDS011;67165;50.256;10.978;2023-05-14T10:38:46;6.32;;;4.57;;
26574;SDS011;67165;50.256;10.978;2023-05-14T10:41:20;5.93;;;4.50;;
26574;SDS011;67165;50.256;10.978;2023-05-14T10:43:45;7.07;;;4.40;;
26574;SDS011;67165;50.256;10.978;2023-05-14T10:46:12;4.90;;;4.25;;
26574;SDS011;67165;50.256;10.978;2023-05-14T10:48:40;4.78;;;4.22;;
26574;SDS011;67165;50.256;10.978;2023-05-14T10:51:10;5.40;;;4.25;;
26574;SDS011;67165;50.256;10.978;2023-05-14T10:53:37;5.50;;;4.05;;
26574;SDS011;67165;50.256;10.978;2023-05-14T10:56:04;4.65;;;4.05;;
26574;SDS011;67165;50.256;10.978;2023-05-14T10:58:37;5.07;;;4.25;;
26574;SDS011;67165;50.256;10.978;2023-05-14T11:01:08;4.88;;;4.13;;
26574;SDS011;67165;50.256;10.978;2023-05-14T11:03:42;4.20;;;3.63;;
26574;SDS011;67165;50.256;10.978;2023-05-14T11:06:11;4.93;;;4.28;;
26574;SDS011;67165;50.256;10.978;2023-05-14T11:08:39;5.38;;;4.15;;
26574;SDS011;67165;50.256;10.978;2023-05-14T11:11:05;5.10;;;4.20;;
26574;SDS011;67165;50.256;10.978;2023-05-14T11:13:31;4.90;;;3.75;;
26574;SDS011;67165;50.256;10.978;2023-05-14T11:15:58;5.47;;;3.90;;
26574;SDS011;67165;50.256;10.978;2023-05-14T11:18:26;5.13;;;4.03;;
26574;SDS011;67165;50.256;10.978;2023-05-14T11:20:57;4.43;;;3.92;;
26574;SDS011;67165;50.256;10.978;2023-05-14T11:23:24;5.05;;;3.80;;
26574;SDS011;67165;50.256;10.978;2023-05-14T11:25:51;4.50;;;3.55;;
26574;SDS011;67165;50.256;10.978;2023-05-14T11:28:19;4.95;;;3.47;;
26574;SDS011;67165;50.256;10.978;2023-05-14T11:30:46;5.22;;;3.47;;
26574;SDS011;67165;50.256;10.978;2023-05-14T11:33:12;4.30;;;3.60;;
26574;SDS011;67165;50.256;10.978;2023-05-14T11:35:38;5.35;;;3.20;;
26574;SDS011;67165;50.256;10.978;2023-05-14T11:38:03;3.70;;;2.90;;
26574;SDS011;67165;50.256;10.978;2023-05-14T11:40:29;5.75;;;3.15;;
26574;SDS011;67165;50.256;10.978;2023-05-14T11:42:55;3.88;;;3.47;;
26574;SDS011;67165;50.256;10.978;2023-05-14T11:45:24;4.05;;;3.22;;
26574;SDS011;67165;50.256;10.978;2023-05-14T11:47:51;6.38;;;3.22;;
26574;SDS011;67165;50.256;10.978;2023-05-14T11:50:18;5.35;;;3.63;;
26574;SDS011;67165;50.256;10.978;2023-05-14T11:52:45;3.83;;;3.28;;
26574;SDS011;67165;50.256;10.978;2023-05-14T11:55:12;3.55;;;3.17;;
26574;SDS011;67165;50.256;10.978;2023-05-14T11:57:38;3.30;;;3.00;;
26574;SDS011;67165;50.256;10.978;2023-05-14T12:00:08;4.00;;;3.42;;
26574;SDS011;67165;50.256;10.978;2023-05-14T12:02:37;5.45;;;3.25;;
26574;SDS011;67165;50.256;10.978;2023-05-14T12:05:03;3.40;;;3.10;;
26574;SDS011;67165;50.256;10.978;2023-05-14T12:07:31;3.75;;;3.17;;
26574;SDS011;67165;50.256;10.978;2023-05-14T12:09:59;5.03;;;3.20;;
26574;SDS011;67165;50.256;10.978;2023-05-14T12:12:26;3.85;;;3.28;;
26574;SDS011;67165;50.256;10.978;2023-05-14T12:14:51;3.58;;;3.00;;
26574;SDS011;67165;50.256;10.978;2023-05-14T12:17:18;4.20;;;3.15;;
26574;SDS011;67165;50.256;10.978;2023-05-14T12:19:52;3.50;;;3.10;;
26574;SDS011;67165;50.256;10.978;2023-05-14T12:22:21;3.30;;;2.97;;
26574;SDS011;67165;50.256;10.978;2023-05-14T12:24:53;5.47;;;3.30;;
26574;SDS011;67165;50.256;10.978;2023-05-14T12:27:24;3.40;;;3.10;;
26574;SDS011;67165;50.256;10.978;2023-05-14T12:30:02;3.63;;;2.83;;
26574;SDS011;67165;50.256;10.978;2023-05-14T12:32:30;3.60;;;3.08;;
26574;SDS011;67165;50.256;10.978;2023-05-14T12:34:56;4.30;;;3.30;;
26574;SDS011;67165;50.256;10.978;2023-05-14T12:37:22;3.72;;;3.30;;
26574;SDS011;67165;50.256;10.978;2023-05-14T12:39:48;3.67;;;3.30;;
26574;SDS011;67165;50.256;10.978;2023-05-14T12:42:14;6.68;;;3.35;;
26574;SDS011;67165;50.256;10.978;2023-05-14T12:44:40;5.30;;;3.20;;
26574;SDS011;67165;50.256;10.978;2023-05-14T12:47:06;4.70;;;3.60;;
26574;SDS011;67165;50.256;10.978;2023-05-14T12:49:31;3.67;;;3.25;;
26574;SDS011;67165;50.256;10.978;2023-05-14T12:51:57;4.78;;;3.58;;
26574;SDS011;67165;50.256;10.978;2023-05-14T12:54:23;6.03;;;3.63;;
26574;SDS011;67165;50.256;10.978;2023-05-14T12:56:48;4.28;;;3.40;;
26574;SDS011;67165;50.256;10.978;2023-05-14T12:59:14;4.88;;;3.53;;
26574;SDS011;67165;50.256;10.978;2023-05-14T13:01:40;3.88;;;3.47;;
26574;SDS011;67165;50.256;10.978;2023-05-14T13:04:06;4.22;;;2.97;;
26574;SDS011;67165;50.256;10.978;2023-05-14T13:06:36;4.20;;;3.00;;
26574;SDS011;67165;50.256;10.978;2023-05-14T13:09:05;3.75;;;3.35;;
26574;SDS011;67165;50.256;10.978;2023-05-14T13:11:32;4.18;;;3.10;;
26574;SDS011;67165;50.256;10.978;2023-05-14T13:13:58;3.80;;;3.38;;
26574;SDS011;67165;50.256;10.978;2023-05-14T13:16:27;3.75;;;3.35;;
26574;SDS011;67165;50.256;10.978;2023-05-14T13:18:53;6.03;;;3.42;;
26574;SDS011;67165;50.256;10.978;2023-05-14T13:21:19;3.47;;;2.95;;
26574;SDS011;67165;50.256;10.978;2023-05-14T13:23:45;5.40;;;3.50;;
26574;SDS011;67165;50.256;10.978;2023-05-14T13:26:11;3.40;;;3.10;;
26574;SDS011;67165;50.256;10.978;2023-05-14T13:28:38;3.95;;;3.13;;
26574;SDS011;67165;50.256;10.978;2023-05-14T13:31:07;4.60;;;3.58;;
26574;SDS011;67165;50.256;10.978;2023-05-14T13:33:41;6.30;;;3.38;;
26574;SDS011;67165;50.256;10.978;2023-05-14T13:36:09;5.38;;;3.67;;
26574;SDS011;67165;50.256;10.978;2023-05-14T13:38:36;3.72;;;3.00;;
26574;SDS011;67165;50.256;10.978;2023-05-14T13:41:02;3.60;;;3.30;;
26574;SDS011;67165;50.256;10.978;2023-05-14T13:43:28;3.47;;;2.92;;
26574;SDS011;67165;50.256;10.978;2023-05-14T13:45:58;4.13;;;2.95;;
26574;SDS011;67165;50.256;10.978;2023-05-14T13:48:25;5.20;;;3.53;;
26574;SDS011;67165;50.256;10.978;2023-05-14T13:50:51;3.33;;;3.03;;
26574;SDS011;67165;50.256;10.978;2023-05-14T13:53:17;3.97;;;2.90;;
26574;SDS011;67165;50.256;10.978;2023-05-14T13:55:44;4.35;;;2.90;;
26574;SDS011;67165;50.256;10.978;2023-05-14T13:58:10;4.40;;;2.83;;
26574;SDS011;67165;50.256;10.978;2023-05-14T14:00:35;4.20;;;3.58;;
26574;SDS011;67165;50.256;10.978;2023-05-14T14:03:01;3.25;;;2.95;;
26574;SDS011;67165;50.256;10.978;2023-05-14T14:05:27;3.85;;;3.15;;
26574;SDS011;67165;50.256;10.978;2023-05-14T14:07:53;3.42;;;2.90;;
26574;SDS011;67165;50.256;10.978;2023-05-14T14:10:20;3.78;;;3.30;;
26574;SDS011;67165;50.256;10.978;2023-05-14T14:12:46;3.50;;;3.15;;
26574;SDS011;67165;50.256;10.978;2023-05-14T14:15:12;3.55;;;3.00;;
26574;SDS011;67165;50.256;10.978;2023-05-14T14:17:37;4.53;;;3.17;;
26574;SDS011;67165;50.256;10.978;2023-05-14T14:20:06;4.90;;;3.28;;
26574;SDS011;67165;50.256;10.978;2023-05-14T14:22:32;3.65;;;3.00;;
26574;SDS011;67165;50.256;10.978;2023-05-14T14:24:58;3.30;;;2.80;;
26574;SDS011;67165;50.256;10.978;2023-05-14T14:27:23;5.10;;;3.00;;
26574;SDS011;67165;50.256;10.978;2023-05-14T14:29:50;3.63;;;2.80;;
26574;SDS011;67165;50.256;10.978;2023-05-14T14:32:15;4.07;;;3.22;;
26574;SDS011;67165;50.256;10.978;2023-05-14T14:34:41;3.60;;;3.00;;
26574;SDS011;67165;50.256;10.978;2023-05-14T14:37:06;3.20;;;2.90;;
26574;SDS011;67165;50.256;10.978;2023-05-14T14:39:32;5.32;;;3.55;;